Kellogg, IA

12:33 PM CDT on July 30, 2016 (GMT -0500)
Newton Municipal | | Change Station

Elev 951 ft 41.67 °N, 93.02 °W | Updated 18 minutes ago

Overcast
Overcast
73 °F
Feels Like 73 °F
N
0
Wind Variable Wind from North

Today
High -- | Low -- °F
--% Chance of Precip.
Yesterday
High -- | Low -- °F
Precip. -- in
Pressure 30.03 in
Visibility 9.0 miles
Clouds Few 1700 ft
Scattered Clouds 3900 ft
Overcast 7000 ft
Dew Point 68 °F
Humidity 83%
Rainfall 0.00 in
Snow Depth Not available.
6:04 AM 8:31 PM
Waning Crescent, 12% visible
METAR KTNU 301715Z AUTO 00000KT 9SM FEW017 SCT039 OVC070 23/20 A3003 RMK AO2 PWINO
Pressure 30.03 in
Visibility 9.0 miles
Clouds Few 1700 ft
Scattered Clouds 3900 ft
Overcast 7000 ft
Dew Point 68 °F
Humidity 83%
Rainfall 0.00 in
Snow Depth Not available.
6:04 AM 8:31 PM
Waning Crescent, 12% visible
METAR KTNU 301715Z AUTO 00000KT 9SM FEW017 SCT039 OVC070 23/20 A3003 RMK AO2 PWINO

10-Day Weather Forecast

Almanac

Astronomy

Jul. 30, 2016 Rise Set
Actual Time
Civil Twilight
Nautical Twilight
Astronomical Twilight
Moon
Length of Visible Light
Length of Day
Tomorrow will be .
, % of the Moon is Illuminated

Today's Extremes

State Highs State Lows

Community

WunderPhotos

Upload Photos

1,928,600 photos uploaded!

WunderBlog® & News

Nearby

Air Quality

  Air Quality AQ Index Pollutant
Not available.

Snow Depth

Station Depth Elevation

Earthquake Activity

City Distance Mag. Time & Date
Minimum magnitude displayed is 2.5.

Coastal Water Temperatures

Place Temperature

Stations

Nearby Weather Stations

Station Location Temp. Windchill Dew Point Humidity Wind Precip. Elev Updated Type
                   

Watches & Warnings

There are currently no watches in effect.